createdAt,value
2023-02-12T00:01:18.616Z,27.27
2023-02-12T00:03:45.195Z,25.73
2023-02-12T00:06:15.733Z,26.00
2023-02-12T00:08:42.949Z,29.48
2023-02-12T00:11:13.509Z,26.73
2023-02-12T00:13:40.456Z,24.33
2023-02-12T00:16:09.485Z,24.77
2023-02-12T00:18:37.163Z,23.10
2023-02-12T00:21:04.433Z,25.08
2023-02-12T00:23:31.508Z,26.55
2023-02-12T00:25:58.306Z,29.48
2023-02-12T00:28:26.851Z,29.42
2023-02-12T00:30:55.265Z,25.90
2023-02-12T00:33:22.061Z,21.20
2023-02-12T00:35:58.638Z,28.80
2023-02-12T00:38:25.230Z,26.08
2023-02-12T00:40:52.000Z,33.13
2023-02-12T00:43:18.633Z,25.60
2023-02-12T00:45:46.362Z,26.38
2023-02-12T00:48:14.377Z,28.17
2023-02-12T00:50:41.627Z,25.77
2023-02-12T00:53:08.332Z,30.13
2023-02-12T00:55:35.370Z,32.22
2023-02-12T00:58:02.086Z,28.52
2023-02-12T01:00:28.869Z,27.35
2023-02-12T01:02:56.821Z,30.02
2023-02-12T01:05:23.821Z,26.63
2023-02-12T01:07:53.660Z,28.25
2023-02-12T01:10:21.002Z,24.65
2023-02-12T01:12:48.633Z,27.75
2023-02-12T01:15:16.217Z,29.33
2023-02-12T01:17:43.286Z,30.40
2023-02-12T01:20:13.627Z,27.90
2023-02-12T01:22:40.433Z,26.80
2023-02-12T01:25:07.672Z,25.00
2023-02-12T01:27:34.248Z,31.00
2023-02-12T01:30:00.830Z,26.50
2023-02-12T01:32:27.575Z,27.63
2023-02-12T01:34:54.233Z,33.83
2023-02-12T01:37:21.843Z,26.20
2023-02-12T01:39:48.401Z,24.98
2023-02-12T01:42:18.609Z,24.27
2023-02-12T01:45:13.871Z,29.13
2023-02-12T01:47:45.405Z,26.70
2023-02-12T01:50:16.573Z,26.27
2023-02-12T01:52:48.386Z,26.73
2023-02-12T01:55:15.825Z,26.70
2023-02-12T01:57:45.938Z,28.00
2023-02-12T02:00:30.829Z,24.10
2023-02-12T02:03:01.931Z,29.27
2023-02-12T02:05:47.994Z,26.98
2023-02-12T02:08:15.039Z,30.58
2023-02-12T02:10:41.958Z,25.48
2023-02-12T02:13:27.318Z,27.85
2023-02-12T02:15:59.890Z,27.15
2023-02-12T02:21:07.795Z,25.65
2023-02-12T02:23:39.558Z,26.38
2023-02-12T02:26:33.390Z,24.52
2023-02-12T02:29:20.404Z,22.13
2023-02-12T02:32:02.871Z,26.55
2023-02-12T02:34:39.856Z,23.38
2023-02-12T02:37:51.031Z,28.40
2023-02-12T02:40:27.050Z,28.38
2023-02-12T02:43:04.552Z,25.30
2023-02-12T02:45:43.241Z,28.55
2023-02-12T02:48:18.650Z,25.50
2023-02-12T02:50:51.554Z,26.05
2023-02-12T02:53:28.298Z,29.23
2023-02-12T02:55:58.873Z,31.58
2023-02-12T02:58:32.535Z,26.20
2023-02-12T03:01:05.972Z,27.92
2023-02-12T03:03:38.225Z,29.08
2023-02-12T03:06:13.505Z,29.80
2023-02-12T03:08:44.663Z,28.60
2023-02-12T03:11:17.027Z,31.02
2023-02-12T03:13:49.507Z,26.48
2023-02-12T03:16:27.690Z,29.00
2023-02-12T03:19:02.306Z,26.20
2023-02-12T03:21:51.791Z,28.30
2023-02-12T03:24:32.984Z,27.77
2023-02-12T03:27:07.320Z,27.13
2023-02-12T03:29:34.137Z,29.80
2023-02-12T03:32:09.944Z,29.40
2023-02-12T03:34:45.062Z,26.67
2023-02-12T03:37:24.669Z,25.92
2023-02-12T03:40:11.386Z,25.15
2023-02-12T03:42:48.402Z,23.25
2023-02-12T03:45:42.346Z,28.00
2023-02-12T03:48:15.101Z,25.88
2023-02-12T03:50:50.924Z,25.52
2023-02-12T03:53:17.608Z,23.83
2023-02-12T03:55:48.797Z,26.52
2023-02-12T03:58:21.440Z,23.48
2023-02-12T04:03:14.736Z,24.08
2023-02-12T04:05:41.342Z,23.35
2023-02-12T04:08:11.209Z,27.45
2023-02-12T04:11:13.239Z,24.52
2023-02-12T04:13:52.587Z,20.75
2023-02-12T04:16:43.816Z,21.45
2023-02-12T04:19:14.933Z,27.67
2023-02-12T04:21:53.955Z,28.20
2023-02-12T04:25:03.415Z,27.13
2023-02-12T04:27:47.839Z,23.42
2023-02-12T04:30:24.989Z,26.98
2023-02-12T04:32:57.076Z,22.98
2023-02-12T04:35:34.917Z,22.35
2023-02-12T04:38:10.646Z,26.67
2023-02-12T04:40:40.765Z,24.35
2023-02-12T04:43:07.610Z,25.50
2023-02-12T04:45:37.089Z,25.45
2023-02-12T04:48:04.548Z,23.35
2023-02-12T04:50:39.772Z,24.23
2023-02-12T04:53:06.389Z,21.75
2023-02-12T04:55:33.031Z,21.85
2023-02-12T04:57:59.638Z,21.55
2023-02-12T05:00:26.313Z,23.38
2023-02-12T05:02:52.803Z,21.73
2023-02-12T05:05:19.479Z,20.35
2023-02-12T05:07:46.193Z,19.50
2023-02-12T05:10:12.768Z,21.80
2023-02-12T05:12:39.335Z,23.58
2023-02-12T05:15:06.483Z,22.40
2023-02-12T05:17:33.280Z,24.25
2023-02-12T05:19:59.807Z,21.52
2023-02-12T05:22:26.334Z,22.35
2023-02-12T05:24:52.941Z,21.33
2023-02-12T05:27:19.523Z,22.90
2023-02-12T05:29:46.083Z,21.40
2023-02-12T05:32:12.838Z,21.35
2023-02-12T05:34:39.342Z,23.05
2023-02-12T05:37:06.030Z,23.08
2023-02-12T05:39:32.606Z,21.52
2023-02-12T05:41:59.168Z,18.90
2023-02-12T05:44:25.756Z,22.95
2023-02-12T05:46:52.324Z,20.95
2023-02-12T05:49:18.887Z,21.67
2023-02-12T05:51:45.540Z,19.27
2023-02-12T05:54:12.161Z,24.23
2023-02-12T05:56:44.108Z,20.33
2023-02-12T05:59:20.729Z,22.75
2023-02-12T06:01:48.504Z,22.45
2023-02-12T06:04:27.936Z,22.10
2023-02-12T06:06:55.954Z,21.48
2023-02-12T06:09:23.034Z,20.20
2023-02-12T06:11:49.589Z,23.13
2023-02-12T06:14:18.334Z,21.73
2023-02-12T06:16:49.911Z,25.95
2023-02-12T06:19:17.179Z,20.85
2023-02-12T06:21:44.362Z,21.90
2023-02-12T06:24:12.919Z,24.95
2023-02-12T06:26:39.772Z,22.35
2023-02-12T06:29:06.339Z,21.73
2023-02-12T06:31:35.597Z,23.48
2023-02-12T06:34:05.582Z,19.55
2023-02-12T06:36:32.883Z,22.40
2023-02-12T06:39:02.685Z,22.33
2023-02-12T06:41:29.701Z,21.70
2023-02-12T06:43:56.262Z,22.20
2023-02-12T06:46:23.348Z,23.98
2023-02-12T06:48:53.713Z,20.70
2023-02-12T06:51:21.846Z,22.75
2023-02-12T06:53:48.565Z,23.92
2023-02-12T06:56:15.174Z,21.98
2023-02-12T06:58:44.321Z,21.73
2023-02-12T07:01:17.810Z,24.42
2023-02-12T07:03:50.536Z,23.13
2023-02-12T07:06:18.200Z,23.00
2023-02-12T07:08:44.825Z,21.67
2023-02-12T07:11:11.817Z,23.20
2023-02-12T07:13:43.210Z,23.38
2023-02-12T07:16:12.390Z,20.50
2023-02-12T07:18:39.992Z,28.48
2023-02-12T07:21:08.445Z,20.15
2023-02-12T07:23:35.827Z,24.83
2023-02-12T07:26:08.761Z,25.13
2023-02-12T07:28:35.745Z,23.98
2023-02-12T07:31:23.293Z,25.27
2023-02-12T07:33:53.778Z,22.23
2023-02-12T07:36:20.896Z,24.17
2023-02-12T07:38:47.595Z,28.27
2023-02-12T07:41:25.706Z,25.20
2023-02-12T07:44:14.683Z,28.13
2023-02-12T07:49:36.781Z,24.95
2023-02-12T07:52:03.354Z,31.67
2023-02-12T07:54:29.824Z,31.92
2023-02-12T07:56:56.386Z,30.48
2023-02-12T07:59:22.959Z,29.88
2023-02-12T08:01:52.250Z,30.00
2023-02-12T08:04:22.167Z,27.10
2023-02-12T08:06:51.325Z,26.33
2023-02-12T08:09:20.984Z,26.10
2023-02-12T08:11:48.784Z,29.35
2023-02-12T08:14:17.894Z,24.92
2023-02-12T08:16:46.056Z,26.20
2023-02-12T08:19:20.942Z,28.60
2023-02-12T08:21:51.413Z,24.42
2023-02-12T08:24:18.153Z,25.15
2023-02-12T08:26:45.147Z,27.08
2023-02-12T08:29:15.041Z,29.30
2023-02-12T08:31:44.706Z,27.48
2023-02-12T08:34:22.695Z,29.13
2023-02-12T08:36:50.940Z,25.25
2023-02-12T08:39:18.785Z,25.30
2023-02-12T08:41:46.075Z,27.10
2023-02-12T08:44:13.506Z,24.83
2023-02-12T08:46:46.642Z,26.15
2023-02-12T08:49:22.258Z,25.60
2023-02-12T08:51:51.148Z,25.63
2023-02-12T08:54:20.812Z,26.48
2023-02-12T08:56:47.370Z,22.63
2023-02-12T08:59:15.664Z,26.90
2023-02-12T09:01:43.513Z,26.58
2023-02-12T09:04:17.706Z,26.45
2023-02-12T09:06:45.121Z,24.85
2023-02-12T09:09:11.642Z,27.83
2023-02-12T09:11:38.240Z,27.05
2023-02-12T09:14:07.249Z,27.08
2023-02-12T09:16:35.454Z,27.35
2023-02-12T09:19:02.858Z,27.85
2023-02-12T09:21:29.434Z,26.95
2023-02-12T09:23:56.233Z,30.73
2023-02-12T09:26:25.751Z,27.08
2023-02-12T09:28:52.975Z,26.77
2023-02-12T09:31:28.330Z,28.52
2023-02-12T09:33:58.928Z,29.38
2023-02-12T09:36:25.737Z,33.60
2023-02-12T09:38:54.116Z,33.05
2023-02-12T09:41:46.943Z,31.08
2023-02-12T09:44:31.754Z,32.78
2023-02-12T09:47:19.521Z,37.28
2023-02-12T09:50:10.039Z,38.08
2023-02-12T09:52:37.324Z,33.72
2023-02-12T09:55:04.693Z,36.40
2023-02-12T09:57:36.554Z,31.52
2023-02-12T10:00:09.342Z,30.63
2023-02-12T10:02:38.029Z,30.35
2023-02-12T10:05:06.646Z,28.83
2023-02-12T10:07:51.917Z,33.85
2023-02-12T10:11:00.563Z,30.35
2023-02-12T10:14:05.427Z,29.25
2023-02-12T10:16:37.958Z,26.90
2023-02-12T10:19:17.017Z,30.60
2023-02-12T10:22:25.100Z,28.85
2023-02-12T10:25:06.481Z,29.33
2023-02-12T10:27:47.236Z,27.92
2023-02-12T10:30:21.037Z,29.30
2023-02-12T10:32:51.598Z,29.60
2023-02-12T10:35:21.066Z,31.95
2023-02-12T10:38:02.945Z,24.52
2023-02-12T10:40:33.942Z,26.13
2023-02-12T10:43:02.798Z,28.10
2023-02-12T10:45:40.263Z,29.52
2023-02-12T10:48:31.392Z,31.27
2023-02-12T10:51:30.459Z,29.90
2023-02-12T10:53:57.048Z,28.90
2023-02-12T10:56:25.343Z,30.98
2023-02-12T10:59:00.282Z,29.33
2023-02-12T11:01:28.252Z,30.33
2023-02-12T11:03:57.322Z,33.28
2023-02-12T11:06:29.955Z,32.50
2023-02-12T11:11:38.272Z,25.33
2023-02-12T11:14:17.545Z,28.85
2023-02-12T11:16:52.170Z,27.15
2023-02-12T11:19:23.526Z,26.48
2023-02-12T11:21:50.963Z,31.70
2023-02-12T11:24:31.873Z,26.00
2023-02-12T11:27:16.754Z,26.70
2023-02-12T11:29:44.558Z,22.98
2023-02-12T11:32:20.042Z,28.83
2023-02-12T11:35:35.116Z,25.25
2023-02-12T11:38:03.445Z,24.42
2023-02-12T11:40:33.768Z,27.17
2023-02-12T11:43:06.851Z,23.20
2023-02-12T11:45:49.805Z,21.33
2023-02-12T11:48:20.985Z,25.35
2023-02-12T11:50:50.706Z,24.02
2023-02-12T11:53:25.568Z,22.13
2023-02-12T11:55:55.673Z,21.58
2023-02-12T11:58:24.913Z,21.65
2023-02-12T12:01:05.661Z,23.02
2023-02-12T12:03:58.356Z,25.67
2023-02-12T12:06:49.793Z,24.20
2023-02-12T12:09:29.825Z,26.45
2023-02-12T12:12:34.137Z,28.85
2023-02-12T12:15:26.352Z,25.42
2023-02-12T12:18:21.140Z,26.95
2023-02-12T12:20:55.337Z,25.15
2023-02-12T12:23:35.591Z,27.30
2023-02-12T12:26:12.869Z,28.35
2023-02-12T12:28:51.441Z,28.98
2023-02-12T12:31:25.845Z,26.98
2023-02-12T12:34:12.380Z,26.20
2023-02-12T12:36:57.841Z,26.75
2023-02-12T12:39:36.882Z,28.70
2023-02-12T12:42:15.631Z,26.25
2023-02-12T12:44:51.245Z,27.45
2023-02-12T12:47:31.824Z,27.25
2023-02-12T12:50:20.495Z,28.17
2023-02-12T12:52:59.373Z,34.97
2023-02-12T12:55:59.780Z,34.33
2023-02-12T12:58:32.361Z,29.95
2023-02-12T13:03:44.035Z,27.63
2023-02-12T13:06:21.084Z,30.30
2023-02-12T13:08:58.799Z,29.40
2023-02-12T13:11:49.794Z,28.70
2023-02-12T13:14:27.594Z,30.45
2023-02-12T13:17:30.443Z,26.05
2023-02-12T13:20:08.273Z,46.40
2023-02-12T13:22:49.089Z,29.63
2023-02-12T13:25:22.695Z,30.05
2023-02-12T13:27:51.926Z,28.15
2023-02-12T13:30:23.731Z,36.85
2023-02-12T13:33:24.549Z,35.17
2023-02-12T13:36:00.468Z,36.13
2023-02-12T13:38:32.456Z,30.33
2023-02-12T13:41:04.716Z,30.00
2023-02-12T13:43:49.021Z,29.38
2023-02-12T13:46:55.919Z,31.00
2023-02-12T13:49:33.974Z,28.55
2023-02-12T13:52:09.669Z,29.08
2023-02-12T13:55:11.422Z,64.40
2023-02-12T13:57:38.175Z,45.47
2023-02-12T14:00:08.910Z,32.22
2023-02-12T14:02:38.716Z,30.90
2023-02-12T14:05:20.942Z,32.45
2023-02-12T14:07:54.062Z,27.83
2023-02-12T14:10:25.672Z,29.95
2023-02-12T14:12:55.519Z,27.60
2023-02-12T14:15:35.013Z,28.50
2023-02-12T14:18:29.660Z,28.50
2023-02-12T14:21:11.038Z,31.77
2023-02-12T14:23:44.754Z,29.35
2023-02-12T14:26:12.808Z,31.80
2023-02-12T14:29:01.897Z,32.00
2023-02-12T14:31:37.339Z,28.45
2023-02-12T14:34:07.474Z,29.80
2023-02-12T14:36:38.830Z,31.00
2023-02-12T14:39:29.543Z,27.10
2023-02-12T14:42:16.031Z,33.35
2023-02-12T14:44:57.190Z,31.30
2023-02-12T14:47:29.918Z,31.77
2023-02-12T14:50:02.605Z,32.88
2023-02-12T14:55:02.609Z,29.90
2023-02-12T14:57:37.489Z,27.42
2023-02-12T15:00:28.357Z,31.70
2023-02-12T15:03:02.516Z,32.75
2023-02-12T15:05:34.514Z,55.55
2023-02-12T15:08:18.110Z,47.33
2023-02-12T15:10:52.596Z,30.42
2023-02-12T15:13:22.198Z,38.67
2023-02-12T15:16:02.623Z,34.35
2023-02-12T15:19:01.942Z,72.05
2023-02-12T15:21:33.203Z,34.72
2023-02-12T15:24:08.287Z,34.72
2023-02-12T15:26:45.258Z,30.17
2023-02-12T15:29:36.337Z,28.67
2023-02-12T15:32:06.386Z,28.70
2023-02-12T15:34:37.904Z,29.17
2023-02-12T15:37:07.399Z,30.60
2023-02-12T15:39:44.079Z,29.10
2023-02-12T15:42:24.284Z,30.80
2023-02-12T15:44:51.053Z,28.38
2023-02-12T15:47:24.739Z,26.73
2023-02-12T15:49:51.296Z,28.73
2023-02-12T15:52:21.992Z,29.00
2023-02-12T15:54:49.176Z,31.85
2023-02-12T15:57:23.968Z,27.95
2023-02-12T15:59:53.215Z,27.10
2023-02-12T16:02:32.877Z,27.27
2023-02-12T16:05:02.208Z,29.48
2023-02-12T16:07:35.038Z,35.55
2023-02-12T16:10:02.760Z,31.77
2023-02-12T16:12:33.653Z,32.60
2023-02-12T16:15:00.899Z,34.10
2023-02-12T16:17:38.112Z,33.95
2023-02-12T16:20:08.758Z,37.30
2023-02-12T16:22:40.890Z,42.28
2023-02-12T16:25:37.648Z,44.65
2023-02-12T16:28:15.600Z,48.45
2023-02-12T16:30:44.188Z,43.78
2023-02-12T16:33:40.799Z,35.28
2023-02-12T16:36:14.202Z,30.60
2023-02-12T16:38:46.726Z,30.85
2023-02-12T16:44:17.940Z,31.40
2023-02-12T16:46:48.605Z,31.40
2023-02-12T16:49:20.176Z,28.10
2023-02-12T16:51:47.895Z,30.95
2023-02-12T16:54:33.141Z,30.08
2023-02-12T16:57:00.342Z,29.45
2023-02-12T16:59:27.451Z,29.00
2023-02-12T17:02:10.626Z,30.23
2023-02-12T17:04:37.293Z,29.85
2023-02-12T17:07:04.134Z,30.40
2023-02-12T17:09:30.864Z,31.98
2023-02-12T17:11:57.516Z,31.38
2023-02-12T17:14:24.197Z,122.93
2023-02-12T17:16:50.779Z,68.15
2023-02-12T17:19:17.341Z,55.03
2023-02-12T17:21:49.288Z,40.45
2023-02-12T17:24:24.642Z,49.72
2023-02-12T17:26:51.518Z,39.05
2023-02-12T17:29:19.317Z,35.03
2023-02-12T17:31:47.895Z,32.05
2023-02-12T17:34:15.804Z,31.60
2023-02-12T17:36:42.746Z,35.33
2023-02-12T17:39:11.966Z,31.08
2023-02-12T17:41:39.283Z,30.45
2023-02-12T17:44:06.059Z,32.28
2023-02-12T17:46:33.625Z,31.25
2023-02-12T17:49:00.415Z,33.70
2023-02-12T17:51:27.211Z,29.60
2023-02-12T17:53:53.770Z,34.85
2023-02-12T17:56:22.875Z,36.30
2023-02-12T17:58:49.799Z,36.00
2023-02-12T18:01:19.366Z,31.50
2023-02-12T18:03:46.131Z,32.90
2023-02-12T18:06:16.277Z,33.22
2023-02-12T18:08:43.474Z,34.75
2023-02-12T18:11:11.479Z,31.30
2023-02-12T18:13:39.268Z,32.33
2023-02-12T18:16:08.134Z,37.42
2023-02-12T18:18:35.902Z,37.67
2023-02-12T18:21:10.398Z,34.25
2023-02-12T18:23:38.336Z,32.08
2023-02-12T18:26:13.959Z,34.55
2023-02-12T18:28:40.840Z,34.28
2023-02-12T18:31:08.255Z,37.63
2023-02-12T18:33:35.601Z,38.47
2023-02-12T18:36:08.770Z,35.17
2023-02-12T18:38:37.019Z,42.58
2023-02-12T18:41:09.743Z,79.40
2023-02-12T18:43:37.054Z,43.58
2023-02-12T18:46:08.386Z,37.25
2023-02-12T18:48:35.393Z,38.72
2023-02-12T18:51:03.966Z,34.25
2023-02-12T18:53:31.023Z,36.08
2023-02-12T18:55:57.769Z,36.42
2023-02-12T18:58:24.920Z,45.08
2023-02-12T19:00:51.543Z,35.50
2023-02-12T19:03:18.111Z,35.17
2023-02-12T19:05:44.712Z,38.22
2023-02-12T19:08:11.672Z,37.40
2023-02-12T19:10:39.578Z,67.78
2023-02-12T19:13:06.387Z,59.03
2023-02-12T19:15:32.931Z,43.65
2023-02-12T19:17:59.542Z,42.13
2023-02-12T19:20:26.158Z,36.78
2023-02-12T19:22:52.697Z,38.92
2023-02-12T19:25:19.388Z,38.65
2023-02-12T19:27:45.994Z,42.00
2023-02-12T19:30:13.029Z,44.10
2023-02-12T19:32:39.683Z,40.20
2023-02-12T19:35:06.620Z,39.60
2023-02-12T19:37:33.280Z,42.17
2023-02-12T19:39:59.874Z,37.30
2023-02-12T19:42:26.553Z,40.33
2023-02-12T19:44:53.121Z,37.47
2023-02-12T19:47:19.672Z,36.78
2023-02-12T19:49:46.241Z,39.65
2023-02-12T19:52:12.812Z,36.15
2023-02-12T19:54:39.391Z,39.63
2023-02-12T19:57:09.147Z,40.22
2023-02-12T19:59:36.323Z,41.90
2023-02-12T20:02:03.838Z,54.50
2023-02-12T20:04:30.965Z,51.50
2023-02-12T20:06:57.865Z,52.40
2023-02-12T20:09:24.905Z,47.13
2023-02-12T20:11:53.253Z,39.45
2023-02-12T20:14:22.487Z,36.58
2023-02-12T20:16:50.502Z,36.08
2023-02-12T20:19:23.947Z,34.25
2023-02-12T20:21:55.214Z,37.35
2023-02-12T20:24:31.218Z,34.72
2023-02-12T20:27:00.217Z,37.67
2023-02-12T20:29:27.008Z,36.60
2023-02-12T20:31:53.841Z,39.85
2023-02-12T20:34:22.003Z,35.38
2023-02-12T20:36:48.774Z,35.60
2023-02-12T20:39:17.833Z,39.45
2023-02-12T20:41:44.440Z,37.90
2023-02-12T20:44:16.010Z,40.42
2023-02-12T20:46:54.506Z,42.75
2023-02-12T20:49:25.166Z,38.08
2023-02-12T20:51:52.563Z,45.70
2023-02-12T20:54:19.198Z,39.97
2023-02-12T20:56:45.749Z,41.67
2023-02-12T20:59:12.515Z,36.97
2023-02-12T21:01:41.700Z,38.80
2023-02-12T21:04:14.517Z,40.65
2023-02-12T21:06:41.978Z,36.20
2023-02-12T21:09:10.018Z,40.13
2023-02-12T21:11:37.203Z,36.65
2023-02-12T21:14:20.802Z,42.03
2023-02-12T21:16:48.527Z,38.63
2023-02-12T21:19:15.231Z,41.20
2023-02-12T21:21:45.142Z,38.83
2023-02-12T21:24:15.054Z,40.85
2023-02-12T21:26:41.859Z,41.13
2023-02-12T21:29:08.506Z,38.88
2023-02-12T21:31:39.844Z,39.00
2023-02-12T21:34:08.129Z,45.55
2023-02-12T21:36:37.613Z,40.85
2023-02-12T21:39:06.136Z,42.83
2023-02-12T21:41:35.722Z,47.08
2023-02-12T21:44:06.271Z,42.97
2023-02-12T21:46:34.721Z,39.75
2023-02-12T21:49:01.777Z,38.45
2023-02-12T21:51:31.824Z,42.10
2023-02-12T21:54:02.385Z,44.63
2023-02-12T21:56:29.318Z,42.05
2023-02-12T21:58:58.051Z,46.60
2023-02-12T22:01:28.848Z,42.47
2023-02-12T22:03:55.727Z,41.08
2023-02-12T22:06:24.639Z,44.40
2023-02-12T22:08:52.783Z,44.80
2023-02-12T22:11:21.270Z,41.40
2023-02-12T22:13:48.317Z,46.83
2023-02-12T22:16:19.097Z,45.53
2023-02-12T22:18:47.717Z,39.78
2023-02-12T22:21:16.027Z,44.00
2023-02-12T22:23:43.802Z,44.28
2023-02-12T22:26:22.149Z,46.35
2023-02-12T22:28:57.794Z,44.28
2023-02-12T22:31:28.494Z,40.75
2023-02-12T22:33:58.126Z,40.10
2023-02-12T22:36:25.256Z,41.10
2023-02-12T22:38:53.701Z,43.13
2023-02-12T22:41:21.161Z,38.83
2023-02-12T22:43:48.306Z,41.38
2023-02-12T22:46:16.166Z,43.47
2023-02-12T22:48:43.154Z,40.08
2023-02-12T22:51:12.500Z,43.55
2023-02-12T22:53:39.065Z,39.40
2023-02-12T22:56:06.594Z,43.13
2023-02-12T22:58:34.147Z,48.78
2023-02-12T23:01:16.614Z,45.55
2023-02-12T23:03:44.456Z,45.58
2023-02-12T23:06:13.891Z,39.63
2023-02-12T23:08:40.910Z,46.00
2023-02-12T23:11:08.651Z,44.67
2023-02-12T23:13:35.998Z,41.92
2023-02-12T23:16:03.468Z,45.42
2023-02-12T23:18:30.565Z,38.25
2023-02-12T23:20:57.581Z,43.33
2023-02-12T23:23:24.440Z,39.75
2023-02-12T23:25:51.494Z,39.75
2023-02-12T23:28:18.071Z,42.97
2023-02-12T23:30:44.818Z,44.38
2023-02-12T23:33:11.498Z,41.50
2023-02-12T23:35:38.359Z,39.55
2023-02-12T23:38:05.367Z,44.10
2023-02-12T23:40:33.160Z,43.30
2023-02-12T23:43:00.088Z,46.00
2023-02-12T23:45:28.154Z,46.13
2023-02-12T23:47:55.284Z,43.45
2023-02-12T23:50:22.058Z,42.80
2023-02-12T23:52:48.702Z,44.13
2023-02-12T23:55:15.861Z,43.97
2023-02-12T23:57:42.424Z,47.40
